Time;durP1;ratioP1;P1;durP2;ratioP2;P2;SDS_P1;SDS_P2;PMS_P1;PMS_P2;Temp;Humidity;BMP_temperature;BMP_pressure;BME280_temperature;BME280_humidity;BME280_pressure;Samples;Min_cycle;Max_cycle;Signal;HPM_P1;HPM_P2
2022/12/29 00:01:00;;;;;;;;;;;16.00;82.90;;;;;;5056831;28;20322;-90
2022/12/29 00:03:25;;;;;;;;;;;16.00;83.20;;;;;;5056841;28;19981;-90
2022/12/29 00:05:55;;;;;;;;;;;16.00;83.30;;;;;;5057338;28;20189;-90
2022/12/29 00:08:38;;;;;;;;;;;16.00;83.50;;;;;;5057175;28;19919;-90
2022/12/29 00:11:10;;;;;;;;;;;15.90;83.50;;;;;;5054944;28;19908;-89
2022/12/29 00:16:20;;;;;;;;;;;15.90;84.10;;;;;;5073615;28;20164;-89
2022/12/29 00:18:46;;;;;;;;;;;15.90;84.40;;;;;;5055768;28;20011;-90
2022/12/29 00:35:10;;;;;;;;;;;15.80;85.70;;;;;;5074718;28;20182;-91
2022/12/29 00:46:04;;;;;;;;;;;15.70;86.50;;;;;;5040487;28;19908;-90
2022/12/29 00:51:14;;;;;;;;;;;15.70;87.00;;;;;;5075778;28;19915;-90
2022/12/29 00:53:40;;;;;;;;;;;15.70;87.00;;;;;;5058161;28;19922;-90
2022/12/29 00:56:05;;;;;;;;;;;15.70;87.40;;;;;;5057544;28;19923;-90
2022/12/29 00:58:31;;;;;;;;;;;15.70;87.50;;;;;;5056963;28;19913;-90
2022/12/29 01:01:03;;;;;;;;;;;15.60;87.50;;;;;;5057240;28;19908;-90
2022/12/29 01:03:29;;;;;;;;;;;15.60;87.70;;;;;;5057019;28;19927;-91
2022/12/29 01:05:55;;;;;;;;;;;15.70;88.00;;;;;;5057982;28;19909;-90
2022/12/29 01:08:20;;;;;;;;;;;15.60;87.90;;;;;;5057462;28;19916;-91
2022/12/29 01:10:46;;;;;;;;;;;15.60;88.20;;;;;;5056204;28;19913;-91
2022/12/29 01:13:11;;;;;;;;;;;15.60;88.20;;;;;;5055040;28;20201;-91
2022/12/29 01:15:37;;;;;;;;;;;15.60;88.50;;;;;;5056595;28;19912;-90
2022/12/29 01:18:03;;;;;;;;;;;15.60;88.50;;;;;;5057000;28;20061;-90
2022/12/29 01:20:28;;;;;;;;;;;15.60;88.80;;;;;;5056790;28;19940;-91
2022/12/29 01:22:54;;;;;;;;;;;15.50;88.90;;;;;;5057051;28;20200;-90
2022/12/29 01:25:20;;;;;;;;;;;15.50;89.20;;;;;;5056868;28;19916;-90
2022/12/29 01:27:45;;;;;;;;;;;15.50;89.20;;;;;;5056306;28;19935;-90
2022/12/29 01:30:11;;;;;;;;;;;15.50;89.40;;;;;;5053981;28;20010;-90
2022/12/29 01:32:37;;;;;;;;;;;15.50;89.60;;;;;;5072293;28;19961;-90
2022/12/29 01:35:03;;;;;;;;;;;15.50;89.80;;;;;;5056112;28;19916;-90
2022/12/29 01:37:28;;;;;;;;;;;15.50;90.00;;;;;;5055350;28;19919;-89
2022/12/29 01:39:54;;;;;;;;;;;15.50;90.00;;;;;;5055688;28;19909;-91
2022/12/29 01:42:22;;;;;;;;;;;15.50;90.10;;;;;;5055575;28;20099;-90
2022/12/29 01:44:48;;;;;;;;;;;15.50;90.00;;;;;;5057251;28;19908;-91
2022/12/29 01:47:43;;;;;;;;;;;15.50;90.20;;;;;;5057194;28;19924;-90
2022/12/29 01:50:15;;;;;;;;;;;15.50;90.20;;;;;;5040722;28;19920;-90
2022/12/29 01:52:44;;;;;;;;;;;15.50;90.20;;;;;;5057475;28;19908;-91
2022/12/29 01:55:10;;;;;;;;;;;15.50;90.40;;;;;;5057095;28;19917;-90
2022/12/29 01:57:37;;;;;;;;;;;15.40;90.40;;;;;;5056239;28;20278;-91
2022/12/29 02:00:05;;;;;;;;;;;15.50;90.40;;;;;;5074912;28;20003;-90
2022/12/29 02:02:31;;;;;;;;;;;15.50;90.50;;;;;;5056527;28;20003;-91
2022/12/29 02:04:58;;;;;;;;;;;15.40;90.50;;;;;;5055832;28;20042;-90
2022/12/29 02:07:26;;;;;;;;;;;15.40;90.60;;;;;;5056271;28;19912;-91
2022/12/29 02:09:54;;;;;;;;;;;15.40;90.60;;;;;;5072807;28;19908;-90
2022/12/29 02:12:20;;;;;;;;;;;15.40;90.70;;;;;;5056100;28;20341;-90
2022/12/29 02:14:47;;;;;;;;;;;15.40;90.80;;;;;;5055994;28;20486;-91
2022/12/29 02:17:34;;;;;;;;;;;15.40;90.80;;;;;;5056629;28;19919;-90
2022/12/29 02:20:11;;;;;;;;;;;15.40;90.90;;;;;;5056805;28;19916;-90
2022/12/29 02:22:40;;;;;;;;;;;15.40;91.00;;;;;;5058106;28;20254;-89
2022/12/29 02:25:41;;;;;;;;;;;15.40;91.10;;;;;;5056949;28;20336;-90
2022/12/29 02:28:25;;;;;;;;;;;15.40;91.10;;;;;;4977063;28;20355;-90
2022/12/29 02:31:05;;;;;;;;;;;15.40;91.20;;;;;;5050075;28;19912;-90
2022/12/29 02:33:51;;;;;;;;;;;15.40;91.30;;;;;;5056633;28;20255;-89
2022/12/29 02:36:27;;;;;;;;;;;15.40;91.30;;;;;;5055175;28;20174;-90
2022/12/29 02:39:09;;;;;;;;;;;15.30;91.30;;;;;;5055976;28;19908;-89
2022/12/29 02:41:46;;;;;;;;;;;15.30;91.40;;;;;;5055265;28;20191;-89
2022/12/29 02:44:19;;;;;;;;;;;15.30;91.40;;;;;;5056321;28;19915;-90
2022/12/29 02:46:49;;;;;;;;;;;15.30;91.50;;;;;;5055954;28;20159;-89
2022/12/29 02:49:19;;;;;;;;;;;15.30;91.50;;;;;;5054861;28;19992;-89
2022/12/29 02:51:45;;;;;;;;;;;15.30;91.60;;;;;;5055252;28;19996;-89
2022/12/29 02:56:54;;;;;;;;;;;15.30;91.60;;;;;;5072356;28;19924;-90
2022/12/29 02:59:20;;;;;;;;;;;15.30;91.60;;;;;;5054035;28;19912;-90
2022/12/29 03:02:16;;;;;;;;;;;15.30;91.60;;;;;;5054193;28;19921;-90
2022/12/29 03:04:58;;;;;;;;;;;15.30;91.60;;;;;;5054352;28;19908;-89
2022/12/29 03:07:43;;;;;;;;;;;15.30;91.70;;;;;;5054081;28;19912;-89
2022/12/29 03:10:12;;;;;;;;;;;15.30;91.70;;;;;;5054275;28;19915;-89
2022/12/29 03:18:20;;;;;;;;;;;15.30;91.90;;;;;;5072746;28;19935;-88
2022/12/29 03:20:56;;;;;;;;;;;15.30;91.90;;;;;;5056954;28;19916;-89
2022/12/29 03:23:23;;;;;;;;;;;15.30;91.90;;;;;;5057341;28;19916;-89
2022/12/29 03:25:52;;;;;;;;;;;15.30;91.90;;;;;;5057458;28;19909;-89
2022/12/29 03:28:23;;;;;;;;;;;15.30;91.90;;;;;;5057250;28;19916;-89
2022/12/29 03:30:48;;;;;;;;;;;15.30;91.90;;;;;;5058159;28;20162;-89
2022/12/29 03:33:20;;;;;;;;;;;15.30;92.10;;;;;;5075845;28;19908;-89
2022/12/29 03:35:48;;;;;;;;;;;15.30;92.10;;;;;;5058271;28;19909;-89
2022/12/29 03:38:19;;;;;;;;;;;15.20;92.20;;;;;;5056159;28;19909;-89
2022/12/29 03:40:59;;;;;;;;;;;15.20;92.20;;;;;;5074512;28;19944;-88
2022/12/29 03:43:25;;;;;;;;;;;15.20;92.30;;;;;;5057437;28;19995;-89
2022/12/29 03:45:50;;;;;;;;;;;15.20;92.40;;;;;;5057009;28;19908;-89
2022/12/29 03:48:16;;;;;;;;;;;15.10;92.40;;;;;;5057614;28;20229;-88
2022/12/29 03:50:42;;;;;;;;;;;15.60;91.90;;;;;;5059972;28;20314;-89
2022/12/29 03:53:07;;;;;;;;;;;16.50;88.50;;;;;;5060931;28;19934;-89
2022/12/29 03:55:33;;;;;;;;;;;17.00;84.70;;;;;;5061101;28;19916;-90
2022/12/29 03:57:58;;;;;;;;;;;17.30;82.60;;;;;;5059727;28;19915;-89
2022/12/29 04:00:24;;;;;;;;;;;17.50;80.60;;;;;;5058509;28;19908;-88
2022/12/29 04:02:50;;;;;;;;;;;17.70;79.10;;;;;;5058368;28;19916;-89
2022/12/29 04:05:15;;;;;;;;;;;17.80;78.00;;;;;;5056942;28;19967;-89
2022/12/29 04:07:41;;;;;;;;;;;18.00;76.90;;;;;;5058769;28;19974;-89
2022/12/29 04:10:07;;;;;;;;;;;18.10;76.00;;;;;;5075634;28;19908;-89
2022/12/29 04:12:32;;;;;;;;;;;18.10;75.40;;;;;;5058620;28;19916;-89
2022/12/29 04:14:58;;;;;;;;;;;18.20;75.10;;;;;;5058965;28;19986;-89
2022/12/29 04:17:24;;;;;;;;;;;18.30;74.30;;;;;;5060509;28;19909;-89
2022/12/29 04:19:49;;;;;;;;;;;18.40;73.40;;;;;;5060131;28;19908;-89
2022/12/29 04:22:15;;;;;;;;;;;18.60;72.50;;;;;;5059338;28;19908;-89
2022/12/29 04:24:40;;;;;;;;;;;18.70;71.70;;;;;;5059070;28;19909;-89
2022/12/29 04:27:06;;;;;;;;;;;18.80;71.40;;;;;;5059632;28;19912;-89
2022/12/29 04:29:32;;;;;;;;;;;18.80;71.10;;;;;;5059595;28;20189;-89
2022/12/29 04:31:57;;;;;;;;;;;18.80;70.90;;;;;;5077493;28;19912;-89
2022/12/29 04:34:23;;;;;;;;;;;18.80;71.00;;;;;;5059130;28;19909;-89
2022/12/29 04:36:48;;;;;;;;;;;18.70;71.20;;;;;;5058581;28;19908;-89
2022/12/29 04:39:14;;;;;;;;;;;18.70;71.50;;;;;;5075708;28;19915;-89
2022/12/29 04:41:40;;;;;;;;;;;18.60;72.00;;;;;;5075115;28;19908;-89
2022/12/29 04:44:05;;;;;;;;;;;18.50;72.60;;;;;;5057939;28;19920;-89
2022/12/29 04:46:31;;;;;;;;;;;18.40;73.30;;;;;;5057730;28;20305;-89
2022/12/29 04:48:57;;;;;;;;;;;18.30;74.10;;;;;;5056160;28;19971;-89
2022/12/29 04:51:22;;;;;;;;;;;18.20;74.90;;;;;;5074720;28;19919;-89
2022/12/29 04:53:48;;;;;;;;;;;18.10;75.70;;;;;;5075018;28;19975;-89
2022/12/29 04:56:14;;;;;;;;;;;17.90;76.30;;;;;;5057681;28;19948;-89
2022/12/29 04:58:39;;;;;;;;;;;17.80;77.10;;;;;;5057559;28;19919;-89
2022/12/29 05:01:05;;;;;;;;;;;17.70;77.80;;;;;;5058684;28;19919;-88
2022/12/29 05:03:30;;;;;;;;;;;17.70;78.70;;;;;;5059143;28;19923;-89
2022/12/29 05:05:56;;;;;;;;;;;17.50;79.40;;;;;;5060215;28;19920;-89
2022/12/29 05:08:22;;;;;;;;;;;17.50;80.10;;;;;;5076372;28;19912;-89
2022/12/29 05:10:50;;;;;;;;;;;17.40;80.60;;;;;;5059920;28;19916;-88
2022/12/29 05:13:16;;;;;;;;;;;17.40;81.40;;;;;;5059069;28;19909;-89
2022/12/29 05:15:45;;;;;;;;;;;17.30;82.00;;;;;;5059637;28;20163;-90
2022/12/29 05:18:11;;;;;;;;;;;17.20;82.50;;;;;;5059090;28;20006;-89
2022/12/29 05:20:37;;;;;;;;;;;17.10;83.10;;;;;;5058637;28;20223;-88
2022/12/29 05:23:02;;;;;;;;;;;17.00;83.80;;;;;;5059031;28;19940;-88
2022/12/29 05:25:28;;;;;;;;;;;16.90;84.20;;;;;;5059108;28;20281;-88
2022/12/29 05:27:53;;;;;;;;;;;16.90;84.50;;;;;;5058050;28;19969;-88
2022/12/29 05:30:19;;;;;;;;;;;16.90;84.70;;;;;;5059430;28;19985;-89
2022/12/29 05:32:44;;;;;;;;;;;16.90;84.80;;;;;;5076692;28;19997;-89
2022/12/29 05:35:10;;;;;;;;;;;17.00;84.70;;;;;;5059900;28;19909;-89
2022/12/29 05:37:36;;;;;;;;;;;17.10;83.90;;;;;;5057147;28;19908;-89
2022/12/29 05:40:01;;;;;;;;;;;17.30;82.90;;;;;;5058011;28;19912;-89
2022/12/29 05:42:27;;;;;;;;;;;17.40;81.40;;;;;;5057357;28;19913;-89
2022/12/29 05:44:53;;;;;;;;;;;17.60;80.00;;;;;;5057136;28;19923;-89
2022/12/29 05:47:19;;;;;;;;;;;17.90;78.40;;;;;;5056112;28;19978;-89
2022/12/29 05:49:45;;;;;;;;;;;18.10;76.90;;;;;;5056058;28;19917;-88
2022/12/29 05:52:10;;;;;;;;;;;18.20;75.60;;;;;;5056037;28;19916;-89
2022/12/29 05:54:36;;;;;;;;;;;18.30;74.70;;;;;;5056015;28;19991;-89
2022/12/29 05:57:02;;;;;;;;;;;18.40;74.60;;;;;;5074865;28;19909;-89
2022/12/29 05:59:27;;;;;;;;;;;18.40;73.40;;;;;;5056373;28;19923;-88
2022/12/29 06:01:53;;;;;;;;;;;18.50;73.20;;;;;;5058288;28;20266;-89
2022/12/29 06:04:18;;;;;;;;;;;18.50;72.80;;;;;;5056571;28;20381;-90
2022/12/29 06:06:44;;;;;;;;;;;18.50;72.80;;;;;;5055231;28;20251;-89
2022/12/29 06:09:10;;;;;;;;;;;18.40;72.80;;;;;;5054821;28;20253;-90
2022/12/29 06:11:36;;;;;;;;;;;18.40;72.90;;;;;;5055691;28;20087;-89
2022/12/29 06:14:01;;;;;;;;;;;18.50;72.80;;;;;;5054746;28;19909;-90
2022/12/29 06:16:27;;;;;;;;;;;18.40;72.80;;;;;;5053575;28;20142;-89
2022/12/29 06:18:53;;;;;;;;;;;18.40;72.80;;;;;;5054328;28;19999;-89
2022/12/29 06:21:18;;;;;;;;;;;18.40;72.80;;;;;;5055139;28;19908;-90
2022/12/29 06:23:44;;;;;;;;;;;18.40;73.00;;;;;;5054382;28;19942;-89
2022/12/29 06:26:10;;;;;;;;;;;18.30;73.30;;;;;;5054267;28;19919;-89
2022/12/29 06:28:35;;;;;;;;;;;18.30;73.70;;;;;;5053744;28;20320;-89
2022/12/29 06:31:02;;;;;;;;;;;18.20;73.90;;;;;;5070920;28;19913;-89
2022/12/29 06:33:28;;;;;;;;;;;18.20;74.10;;;;;;5054822;28;20225;-89
2022/12/29 06:35:54;;;;;;;;;;;18.10;74.40;;;;;;5054896;28;20274;-89
2022/12/29 06:38:19;;;;;;;;;;;18.00;74.70;;;;;;5055547;28;19934;-89
2022/12/29 06:40:45;;;;;;;;;;;18.00;75.00;;;;;;5054075;28;19908;-90
2022/12/29 06:43:11;;;;;;;;;;;18.00;75.30;;;;;;5054433;28;19909;-89
2022/12/29 06:45:40;;;;;;;;;;;17.90;75.70;;;;;;5056206;28;19908;-90
2022/12/29 06:48:05;;;;;;;;;;;17.80;76.00;;;;;;5055370;28;20131;-89
2022/12/29 06:50:31;;;;;;;;;;;17.80;76.20;;;;;;5055203;28;19967;-89
2022/12/29 06:52:57;;;;;;;;;;;17.80;76.60;;;;;;5054491;28;20259;-90
2022/12/29 06:55:22;;;;;;;;;;;17.70;76.80;;;;;;5052871;28;20053;-90
2022/12/29 06:57:48;;;;;;;;;;;17.70;77.00;;;;;;5053304;28;19909;-89
2022/12/29 07:00:14;;;;;;;;;;;17.60;77.30;;;;;;5052892;28;20389;-89
2022/12/29 07:02:39;;;;;;;;;;;17.60;77.60;;;;;;5072608;28;19966;-89
2022/12/29 07:05:07;;;;;;;;;;;17.60;77.90;;;;;;5054155;28;19909;-89
2022/12/29 07:07:32;;;;;;;;;;;17.50;78.20;;;;;;5054242;28;20187;-89
2022/12/29 07:09:58;;;;;;;;;;;17.50;78.50;;;;;;5053693;28;19919;-89
2022/12/29 07:12:24;;;;;;;;;;;17.50;78.70;;;;;;5054698;28;19909;-89
2022/12/29 07:14:49;;;;;;;;;;;17.40;78.60;;;;;;5054429;28;19908;-89
2022/12/29 07:17:15;;;;;;;;;;;17.50;78.70;;;;;;5054062;28;19908;-89
2022/12/29 07:19:40;;;;;;;;;;;17.50;78.50;;;;;;5054658;28;20362;-89
2022/12/29 07:22:06;;;;;;;;;;;17.50;78.30;;;;;;5055197;28;19918;-89
2022/12/29 07:24:31;;;;;;;;;;;17.50;78.30;;;;;;5059564;28;20255;-90
2022/12/29 07:26:57;;;;;;;;;;;17.50;78.10;;;;;;5077033;28;19913;-88
2022/12/29 07:29:23;;;;;;;;;;;17.60;77.80;;;;;;5058643;28;20267;-89
2022/12/29 07:31:48;;;;;;;;;;;17.60;77.60;;;;;;5058556;28;20351;-89
2022/12/29 07:34:14;;;;;;;;;;;17.60;77.30;;;;;;5058262;28;19954;-89
2022/12/29 07:36:39;;;;;;;;;;;17.60;77.10;;;;;;5057352;28;20156;-88
2022/12/29 07:39:05;;;;;;;;;;;17.70;76.70;;;;;;5072668;28;19940;-89
2022/12/29 07:41:31;;;;;;;;;;;17.80;76.30;;;;;;5055159;28;20024;-89
2022/12/29 07:43:56;;;;;;;;;;;17.90;75.90;;;;;;5054757;28;19912;-89
2022/12/29 07:46:22;;;;;;;;;;;17.90;75.50;;;;;;5056733;28;20182;-89
2022/12/29 07:48:48;;;;;;;;;;;18.00;75.00;;;;;;5055690;28;20079;-88
2022/12/29 07:51:14;;;;;;;;;;;18.00;74.60;;;;;;5056101;28;19915;-89
2022/12/29 07:53:39;;;;;;;;;;;18.00;74.30;;;;;;5055680;28;19970;-89
2022/12/29 07:56:05;;;;;;;;;;;18.00;74.20;;;;;;5054872;28;19916;-89
2022/12/29 07:58:32;;;;;;;;;;;18.00;74.10;;;;;;5055204;28;20012;-89
2022/12/29 08:00:57;;;;;;;;;;;18.00;74.00;;;;;;5054191;28;19912;-89
2022/12/29 08:03:23;;;;;;;;;;;18.10;73.90;;;;;;5055743;28;19916;-89
2022/12/29 08:05:49;;;;;;;;;;;18.10;73.40;;;;;;5057045;28;20015;-89
2022/12/29 08:08:15;;;;;;;;;;;18.20;73.20;;;;;;5055975;28;19912;-89
2022/12/29 08:10:40;;;;;;;;;;;18.20;73.00;;;;;;5054529;28;19908;-89
2022/12/29 08:13:06;;;;;;;;;;;18.20;72.90;;;;;;5055427;28;19905;-89
2022/12/29 08:15:32;;;;;;;;;;;18.20;72.70;;;;;;5055476;28;20204;-89
2022/12/29 08:17:58;;;;;;;;;;;18.20;72.80;;;;;;5055212;28;19990;-89
2022/12/29 08:20:23;;;;;;;;;;;18.10;72.90;;;;;;5055284;28;19994;-89
2022/12/29 08:22:50;;;;;;;;;;;18.10;72.90;;;;;;5054786;28;19923;-89
2022/12/29 08:25:15;;;;;;;;;;;18.10;73.20;;;;;;5054111;28;20003;-90
2022/12/29 08:27:41;;;;;;;;;;;18.00;73.70;;;;;;5053492;28;19912;-89
2022/12/29 08:30:07;;;;;;;;;;;18.00;74.60;;;;;;5054314;28;20152;-88
2022/12/29 08:32:33;;;;;;;;;;;18.00;75.40;;;;;;5055352;28;19958;-90
2022/12/29 08:34:59;;;;;;;;;;;17.90;76.10;;;;;;5054604;28;19908;-89
2022/12/29 08:37:25;;;;;;;;;;;17.90;76.40;;;;;;5055438;28;20311;-89
2022/12/29 08:39:50;;;;;;;;;;;17.90;77.10;;;;;;5055365;28;20183;-89
2022/12/29 08:42:16;;;;;;;;;;;17.90;77.60;;;;;;5055792;28;19991;-90
2022/12/29 08:44:42;;;;;;;;;;;17.80;77.80;;;;;;5056254;28;20182;-89
2022/12/29 08:47:09;;;;;;;;;;;17.80;78.50;;;;;;5056341;28;19974;-89
2022/12/29 08:49:34;;;;;;;;;;;17.70;79.20;;;;;;5074490;28;20062;-89
2022/12/29 08:52:00;;;;;;;;;;;17.60;79.90;;;;;;5056774;28;20045;-88
2022/12/29 08:54:26;;;;;;;;;;;17.60;80.80;;;;;;5055393;28;19920;-89
2022/12/29 08:56:51;;;;;;;;;;;17.40;81.60;;;;;;5054456;28;19908;-89
2022/12/29 08:59:17;;;;;;;;;;;17.40;82.60;;;;;;5073082;28;20032;-89
2022/12/29 09:01:43;;;;;;;;;;;17.30;83.50;;;;;;5055479;28;19936;-89
2022/12/29 09:04:08;;;;;;;;;;;17.20;84.60;;;;;;5054934;28;19909;-90
2022/12/29 09:06:34;;;;;;;;;;;17.10;85.50;;;;;;5054979;28;19920;-89
2022/12/29 09:09:00;;;;;;;;;;;17.00;86.10;;;;;;5054224;28;20065;-89
2022/12/29 09:11:26;;;;;;;;;;;17.00;86.60;;;;;;5061904;28;20034;-89
2022/12/29 09:13:52;;;;;;;;;;;17.00;87.10;;;;;;5053429;28;19938;-89
2022/12/29 09:16:18;;;;;;;;;;;17.10;87.60;;;;;;5052912;28;20019;-89
2022/12/29 09:18:44;;;;;;;;;;;17.20;87.30;;;;;;5050906;28;19913;-89
2022/12/29 09:21:10;;;;;;;;;;;17.30;87.10;;;;;;5067790;28;19921;-89
2022/12/29 09:23:36;;;;;;;;;;;17.50;87.80;;;;;;5050133;28;19916;-89
2022/12/29 09:26:02;;;;;;;;;;;17.90;88.40;;;;;;5049184;28;19912;-90
2022/12/29 09:28:28;;;;;;;;;;;18.40;84.90;;;;;;5048483;28;19920;-89
2022/12/29 09:30:54;;;;;;;;;;;18.60;82.50;;;;;;5067846;28;20089;-89
2022/12/29 09:33:20;;;;;;;;;;;19.00;79.50;;;;;;5050155;28;19908;-89
2022/12/29 09:35:50;;;;;;;;;;;19.20;77.50;;;;;;5050827;28;19909;-89
2022/12/29 09:38:16;;;;;;;;;;;19.20;76.50;;;;;;5049347;28;19909;-89
2022/12/29 09:40:44;;;;;;;;;;;19.00;76.60;;;;;;5068083;28;19912;-90
2022/12/29 09:43:16;;;;;;;;;;;18.60;78.50;;;;;;5051355;28;19943;-89
2022/12/29 09:45:44;;;;;;;;;;;18.30;80.00;;;;;;5050541;28;19973;-89
2022/12/29 09:48:17;;;;;;;;;;;18.10;81.20;;;;;;5048629;28;19913;-89
2022/12/29 09:50:46;;;;;;;;;;;18.00;81.60;;;;;;5049690;28;19985;-89
2022/12/29 09:53:35;;;;;;;;;;;18.00;81.90;;;;;;5049295;28;19917;-89
2022/12/29 09:56:01;;;;;;;;;;;18.00;81.60;;;;;;5037578;28;20332;-89
2022/12/29 09:58:35;;;;;;;;;;;18.10;80.90;;;;;;5066541;28;19912;-90
2022/12/29 10:01:05;;;;;;;;;;;18.20;79.60;;;;;;5050281;28;20263;-90
2022/12/29 10:03:50;;;;;;;;;;;18.50;77.80;;;;;;5050086;28;19924;-89
2022/12/29 10:06:18;;;;;;;;;;;18.80;76.10;;;;;;5049096;28;19919;-90
2022/12/29 10:08:51;;;;;;;;;;;19.00;74.40;;;;;;5048800;28;20019;-90
2022/12/29 10:11:26;;;;;;;;;;;19.10;73.30;;;;;;5048755;28;20169;-89
2022/12/29 10:14:11;;;;;;;;;;;19.20;72.20;;;;;;5047981;28;19919;-89
2022/12/29 10:16:43;;;;;;;;;;;19.30;71.40;;;;;;5050260;28;19940;-89
2022/12/29 10:19:17;;;;;;;;;;;19.30;70.90;;;;;;5049287;28;20340;-90
2022/12/29 10:21:59;;;;;;;;;;;19.30;70.80;;;;;;5050638;28;20413;-89
2022/12/29 10:24:25;;;;;;;;;;;19.20;70.80;;;;;;5052390;28;20011;-89
2022/12/29 10:26:51;;;;;;;;;;;19.20;71.00;;;;;;5069698;28;20279;-89
2022/12/29 10:29:19;;;;;;;;;;;19.10;71.20;;;;;;5051223;28;19978;-89
2022/12/29 10:31:47;;;;;;;;;;;19.00;71.50;;;;;;5067715;28;20306;-89
2022/12/29 10:34:28;;;;;;;;;;;18.90;71.90;;;;;;5049722;28;20263;-89
2022/12/29 10:36:57;;;;;;;;;;;18.70;72.70;;;;;;5048541;28;20048;-89
2022/12/29 10:39:22;;;;;;;;;;;18.60;73.30;;;;;;5048904;28;19908;-90
2022/12/29 10:41:50;;;;;;;;;;;18.50;73.80;;;;;;5049523;28;19915;-89
2022/12/29 10:44:16;;;;;;;;;;;18.40;74.40;;;;;;5047534;28;19920;-90
2022/12/29 10:46:43;;;;;;;;;;;18.40;74.80;;;;;;5047742;28;19915;-90
2022/12/29 10:49:17;;;;;;;;;;;18.30;75.30;;;;;;5049075;28;19920;-90
2022/12/29 10:51:44;;;;;;;;;;;18.20;75.70;;;;;;5048914;28;19908;-89
2022/12/29 10:54:09;;;;;;;;;;;18.10;76.10;;;;;;5049639;28;20388;-90
2022/12/29 10:56:35;;;;;;;;;;;18.00;76.60;;;;;;5047522;28;19909;-90
2022/12/29 10:59:12;;;;;;;;;;;17.90;77.20;;;;;;5050858;28;19916;-89
2022/12/29 11:01:41;;;;;;;;;;;17.80;77.80;;;;;;5052513;28;19919;-93
2022/12/29 11:04:39;;;;;;;;;;;17.60;78.60;;;;;;5054214;28;19923;-89
2022/12/29 11:07:06;;;;;;;;;;;17.50;79.50;;;;;;5009272;28;19908;-90
2022/12/29 11:09:33;;;;;;;;;;;17.40;80.50;;;;;;5053469;28;19951;-90
2022/12/29 11:11:59;;;;;;;;;;;17.40;81.30;;;;;;5053267;28;19916;-89
2022/12/29 11:14:29;;;;;;;;;;;17.30;82.00;;;;;;5052823;28;19908;-90
2022/12/29 11:16:58;;;;;;;;;;;17.20;82.80;;;;;;5051609;28;19909;-89
2022/12/29 11:19:33;;;;;;;;;;;17.10;83.90;;;;;;5052146;28;19916;-89
2022/12/29 11:22:13;;;;;;;;;;;17.00;83.90;;;;;;5052163;28;19936;-89
2022/12/29 11:24:46;;;;;;;;;;;16.90;84.40;;;;;;5051981;28;19909;-90
2022/12/29 11:27:16;;;;;;;;;;;16.90;84.90;;;;;;5051323;28;19913;-89
2022/12/29 11:29:43;;;;;;;;;;;16.90;85.00;;;;;;5051837;28;19913;-89
2022/12/29 11:32:18;;;;;;;;;;;17.00;84.60;;;;;;5053350;28;19908;-89
2022/12/29 11:34:44;;;;;;;;;;;17.30;82.90;;;;;;5052907;28;19908;-89
2022/12/29 11:37:18;;;;;;;;;;;17.90;78.90;;;;;;5051661;28;19908;-88
2022/12/29 11:39:43;;;;;;;;;;;18.50;74.30;;;;;;5052769;28;19919;-90
2022/12/29 11:42:14;;;;;;;;;;;19.00;71.00;;;;;;5051193;28;19909;-91
2022/12/29 11:44:42;;;;;;;;;;;19.30;68.40;;;;;;5051371;28;19979;-91
2022/12/29 11:47:09;;;;;;;;;;;19.50;66.70;;;;;;5070811;28;19908;-91
2022/12/29 11:49:35;;;;;;;;;;;19.70;65.80;;;;;;5070096;28;19978;-91
2022/12/29 11:52:01;;;;;;;;;;;19.70;65.20;;;;;;5052764;28;19909;-89
2022/12/29 11:54:35;;;;;;;;;;;19.70;64.90;;;;;;5052931;28;19916;-89
2022/12/29 11:57:09;;;;;;;;;;;19.60;64.90;;;;;;5051469;28;20119;-88
2022/12/29 11:59:36;;;;;;;;;;;19.60;65.20;;;;;;5051287;28;19958;-88
2022/12/29 12:02:21;;;;;;;;;;;19.50;65.30;;;;;;5067825;28;19986;-89
2022/12/29 12:04:49;;;;;;;;;;;19.40;65.80;;;;;;5050853;28;20007;-89
2022/12/29 12:07:22;;;;;;;;;;;19.20;66.60;;;;;;5016821;28;20280;-89
2022/12/29 12:09:48;;;;;;;;;;;19.10;67.20;;;;;;5050043;28;20205;-88
2022/12/29 12:12:21;;;;;;;;;;;19.00;67.80;;;;;;5014269;28;19916;-89
2022/12/29 12:14:54;;;;;;;;;;;18.90;68.60;;;;;;5018735;28;20027;-90
2022/12/29 12:17:23;;;;;;;;;;;18.70;69.40;;;;;;5049844;28;20420;-91
2022/12/29 12:19:53;;;;;;;;;;;18.60;70.30;;;;;;5047868;28;20068;-91
2022/12/29 12:22:28;;;;;;;;;;;18.50;70.90;;;;;;5046028;28;20266;-90
2022/12/29 12:24:53;;;;;;;;;;;18.40;71.30;;;;;;5049618;28;19951;-89
2022/12/29 12:27:21;;;;;;;;;;;18.30;72.00;;;;;;5049183;28;19917;-89
2022/12/29 12:29:56;;;;;;;;;;;18.20;72.50;;;;;;5050587;28;19962;-89
2022/12/29 12:32:29;;;;;;;;;;;18.10;73.20;;;;;;5047460;28;19913;-89
2022/12/29 12:34:55;;;;;;;;;;;18.00;74.10;;;;;;5070112;28;20170;-89
2022/12/29 12:37:39;;;;;;;;;;;17.90;74.70;;;;;;5070035;28;20198;-89
2022/12/29 12:40:07;;;;;;;;;;;17.80;75.60;;;;;;5052004;28;20000;-89
2022/12/29 12:42:32;;;;;;;;;;;17.60;76.50;;;;;;5051365;28;20122;-88
2022/12/29 12:44:58;;;;;;;;;;;17.50;77.30;;;;;;5068970;28;19912;-89
2022/12/29 12:47:30;;;;;;;;;;;17.50;78.10;;;;;;5049333;28;19943;-89
2022/12/29 12:49:55;;;;;;;;;;;17.40;78.70;;;;;;5051118;28;20282;-88
2022/12/29 12:52:29;;;;;;;;;;;17.30;79.30;;;;;;5037387;28;19974;-88
2022/12/29 12:55:04;;;;;;;;;;;17.20;79.90;;;;;;5050163;28;19912;-91
2022/12/29 12:57:38;;;;;;;;;;;17.10;80.30;;;;;;5053942;28;19916;-90
2022/12/29 13:00:12;;;;;;;;;;;17.10;80.70;;;;;;5054176;28;20282;-88
2022/12/29 13:02:43;;;;;;;;;;;17.10;80.80;;;;;;5048130;28;20141;-90
2022/12/29 13:05:15;;;;;;;;;;;17.10;80.70;;;;;;5066353;28;19916;-91
2022/12/29 13:07:44;;;;;;;;;;;17.20;80.20;;;;;;5048366;28;19920;-90
2022/12/29 13:10:15;;;;;;;;;;;17.30;79.40;;;;;;5081583;28;20254;-90
2022/12/29 13:12:48;;;;;;;;;;;17.40;78.40;;;;;;5036560;28;19912;-90
2022/12/29 13:15:14;;;;;;;;;;;17.60;77.50;;;;;;5048624;28;20254;-90
2022/12/29 13:17:52;;;;;;;;;;;17.70;76.40;;;;;;5049522;28;20042;-90
2022/12/29 13:20:21;;;;;;;;;;;17.90;75.30;;;;;;5058477;28;19948;-90
2022/12/29 13:23:05;;;;;;;;;;;18.00;74.40;;;;;;5049045;28;20092;-91
2022/12/29 13:25:37;;;;;;;;;;;18.10;73.90;;;;;;5045750;28;19909;-90
2022/12/29 13:28:02;;;;;;;;;;;18.20;73.00;;;;;;5050817;28;19943;-90
2022/12/29 13:30:32;;;;;;;;;;;18.30;73.10;;;;;;5047511;28;20149;-90
2022/12/29 13:33:10;;;;;;;;;;;18.30;72.00;;;;;;5050719;28;19908;-90
2022/12/29 13:35:38;;;;;;;;;;;18.40;71.70;;;;;;5049883;28;19915;-91
2022/12/29 13:38:09;;;;;;;;;;;18.30;71.70;;;;;;5069286;28;19920;-90
2022/12/29 13:40:38;;;;;;;;;;;18.30;72.10;;;;;;5069088;28;20270;-90
2022/12/29 13:43:04;;;;;;;;;;;18.30;72.20;;;;;;5067984;28;19946;-90
2022/12/29 13:45:32;;;;;;;;;;;18.20;72.80;;;;;;5069315;28;19980;-90
2022/12/29 13:48:02;;;;;;;;;;;18.10;73.20;;;;;;5087683;28;20023;-90
2022/12/29 13:50:29;;;;;;;;;;;18.10;73.60;;;;;;5070267;28;19965;-90
2022/12/29 13:53:10;;;;;;;;;;;18.00;74.20;;;;;;5068731;28;19908;-91
2022/12/29 13:55:55;;;;;;;;;;;17.90;74.90;;;;;;5070022;28;20025;-90
2022/12/29 13:58:34;;;;;;;;;;;17.80;75.80;;;;;;5070776;28;20018;-90
2022/12/29 14:01:20;;;;;;;;;;;17.80;76.60;;;;;;5070719;28;19908;-90
2022/12/29 14:03:47;;;;;;;;;;;17.70;77.30;;;;;;5089992;28;20304;-91
2022/12/29 14:06:23;;;;;;;;;;;17.60;77.90;;;;;;5072293;28;19908;-90
2022/12/29 14:08:49;;;;;;;;;;;17.50;78.40;;;;;;5087834;28;19912;-91
2022/12/29 14:11:16;;;;;;;;;;;17.50;78.90;;;;;;5070618;28;19908;-90
2022/12/29 14:13:43;;;;;;;;;;;17.40;79.20;;;;;;5069467;28;19908;-90
2022/12/29 14:16:21;;;;;;;;;;;17.40;79.60;;;;;;5070306;28;20588;-91
2022/12/29 14:18:46;;;;;;;;;;;17.30;80.00;;;;;;5069206;28;19908;-92
2022/12/29 14:21:23;;;;;;;;;;;17.30;80.50;;;;;;5086557;28;19920;-90
2022/12/29 14:23:50;;;;;;;;;;;17.30;80.80;;;;;;5086085;28;19908;-90
2022/12/29 14:26:18;;;;;;;;;;;17.20;81.20;;;;;;5068365;28;20254;-90
2022/12/29 14:28:43;;;;;;;;;;;17.20;81.60;;;;;;5084571;28;19912;-90
2022/12/29 14:31:15;;;;;;;;;;;17.10;81.90;;;;;;5070949;28;20167;-91
2022/12/29 14:34:01;;;;;;;;;;;17.10;82.20;;;;;;5065424;28;20177;-91
2022/12/29 14:36:37;;;;;;;;;;;17.10;82.60;;;;;;5028775;28;20270;-91
2022/12/29 14:39:04;;;;;;;;;;;17.00;82.80;;;;;;5071407;28;20142;-91
2022/12/29 14:41:35;;;;;;;;;;;17.00;83.20;;;;;;5071416;28;19943;-91
2022/12/29 14:44:06;;;;;;;;;;;16.90;83.50;;;;;;5073319;28;20279;-91
2022/12/29 14:46:42;;;;;;;;;;;16.90;83.70;;;;;;5060444;28;20358;-91
2022/12/29 14:49:12;;;;;;;;;;;16.90;83.80;;;;;;5051786;28;19913;-91
2022/12/29 14:51:38;;;;;;;;;;;17.00;83.70;;;;;;5052934;28;19934;-91
2022/12/29 14:54:23;;;;;;;;;;;16.90;83.70;;;;;;5054553;28;19908;-91
2022/12/29 14:56:48;;;;;;;;;;;17.00;83.90;;;;;;5053626;28;19919;-91
2022/12/29 14:59:14;;;;;;;;;;;17.00;83.90;;;;;;5053036;28;19908;-91
2022/12/29 15:01:48;;;;;;;;;;;17.00;83.80;;;;;;5069910;28;20294;-91